TimeCDT,TemperatureF,Dew PointF,Humidity,Sea Level PressureIn,VisibilityMPH,Wind Direction,Wind SpeedMPH,Gust SpeedMPH,PrecipitationIn,Events,Conditions,WindDirDegrees,DateUTC
12:15 AM,35.1,30.0,82,29.93,10.0,North,5.8,-,N/A,,Clear,350,2012-11-02 05:15:00
12:35 AM,34.3,29.1,81,29.94,10.0,North,6.9,-,N/A,,Clear,350,2012-11-02 05:35:00
12:55 AM,34.3,28.9,81,29.94,10.0,North,5.8,-,N/A,,Scattered Clouds,350,2012-11-02 05:55:00
1:15 AM,32.7,28.4,84,29.94,10.0,NNW,6.9,-,N/A,,Scattered Clouds,340,2012-11-02 06:15:00
1:35 AM,32.9,27.9,82,29.95,10.0,NNW,6.9,-,N/A,,Scattered Clouds,330,2012-11-02 06:35:00
1:55 AM,31.8,27.5,84,29.96,10.0,NW,9.2,-,N/A,,Scattered Clouds,310,2012-11-02 06:55:00
2:15 AM,32.4,28.2,85,29.97,10.0,NW,8.1,-,N/A,,Clear,320,2012-11-02 07:15:00
2:35 AM,31.6,27.3,84,29.98,10.0,NW,9.2,-,N/A,,Clear,320,2012-11-02 07:35:00
2:55 AM,31.8,27.9,85,29.98,10.0,NNW,8.1,-,N/A,,Clear,340,2012-11-02 07:55:00
3:15 AM,33.3,28.8,84,29.98,10.0,North,10.4,-,N/A,,Clear,350,2012-11-02 08:15:00
3:35 AM,33.1,28.4,83,29.98,10.0,North,10.4,-,N/A,,Clear,360,2012-11-02 08:35:00
3:55 AM,32.5,28.4,85,29.98,10.0,North,10.4,-,N/A,,Clear,360,2012-11-02 08:55:00
4:15 AM,32.5,28.4,85,29.99,10.0,North,9.2,-,N/A,,Clear,360,2012-11-02 09:15:00
4:35 AM,32.0,28.2,86,29.99,10.0,North,9.2,-,N/A,,Clear,360,2012-11-02 09:35:00
4:55 AM,32.0,28.4,87,30.00,10.0,North,9.2,-,N/A,,Clear,360,2012-11-02 09:55:00
5:15 AM,32.0,28.4,87,30.01,10.0,North,9.2,-,N/A,,Clear,360,2012-11-02 10:15:00
5:35 AM,30.2,26.4,86,30.02,10.0,North,5.8,-,N/A,,Clear,350,2012-11-02 10:35:00
5:55 AM,31.8,28.2,87,30.02,10.0,North,8.1,-,N/A,,Clear,10,2012-11-02 10:55:00
6:15 AM,31.1,27.9,88,30.03,10.0,North,5.8,-,N/A,,Clear,10,2012-11-02 11:15:00
6:35 AM,30.9,27.3,86,30.03,10.0,NNE,8.1,-,N/A,,Clear,20,2012-11-02 11:35:00
6:55 AM,31.8,28.0,86,30.04,10.0,North,8.1,-,N/A,,Clear,10,2012-11-02 11:55:00
7:15 AM,29.8,25.9,85,30.05,10.0,North,6.9,-,N/A,,Clear,350,2012-11-02 12:15:00
7:35 AM,27.5,24.6,89,30.05,10.0,NW,6.9,-,N/A,,Clear,310,2012-11-02 12:35:00
7:55 AM,28.4,25.9,90,30.06,10.0,NNW,5.8,-,N/A,,Clear,340,2012-11-02 12:55:00
8:15 AM,32.0,28.4,87,30.07,10.0,North,4.6,-,N/A,,Clear,360,2012-11-02 13:15:00
8:55 AM,34.7,29.8,82,30.08,10.0,North,5.8,-,N/A,,Clear,10,2012-11-02 13:55:00
9:15 AM,36.9,31.5,81,30.09,10.0,North,6.9,-,N/A,,Clear,10,2012-11-02 14:15:00
9:35 AM,39.6,32.0,74,30.09,10.0,NNE,11.5,-,N/A,,Clear,20,2012-11-02 14:35:00
9:55 AM,40.1,29.8,67,30.09,10.0,NNE,12.7,-,N/A,,Clear,30,2012-11-02 14:55:00
10:15 AM,41.0,29.3,63,30.10,10.0,NNE,10.4,-,N/A,,Clear,30,2012-11-02 15:15:00
10:35 AM,42.1,30.0,62,30.10,10.0,NE,9.2,-,N/A,,Clear,50,2012-11-02 15:35:00
10:55 AM,42.3,29.3,60,30.10,10.0,NE,11.5,-,N/A,,Clear,50,2012-11-02 15:55:00
11:15 AM,43.3,28.6,56,30.10,10.0,NNE,9.2,-,N/A,,Clear,30,2012-11-02 16:15:00
11:35 AM,43.5,28.0,54,30.11,10.0,North,5.8,-,N/A,,Clear,360,2012-11-02 16:35:00
11:55 AM,44.4,26.8,50,30.11,10.0,North,6.9,-,N/A,,Clear,10,2012-11-02 16:55:00
12:15 PM,44.8,28.2,52,30.11,10.0,NNE,6.9,-,N/A,,Clear,30,2012-11-02 17:15:00
12:35 PM,45.0,28.0,52,30.10,10.0,NNE,6.9,-,N/A,,Clear,20,2012-11-02 17:35:00
12:55 PM,45.9,28.2,50,30.09,10.0,NE,8.1,-,N/A,,Clear,40,2012-11-02 17:55:00
1:15 PM,46.2,28.2,50,30.09,10.0,North,5.8,-,N/A,,Clear,10,2012-11-02 18:15:00
1:35 PM,45.9,27.1,48,30.09,10.0,NNW,6.9,-,N/A,,Clear,340,2012-11-02 18:35:00
1:55 PM,46.4,27.3,47,30.09,10.0,North,5.8,-,N/A,,Clear,350,2012-11-02 18:55:00
2:15 PM,46.4,27.7,48,30.08,10.0,NNW,6.9,-,N/A,,Clear,340,2012-11-02 19:15:00
2:35 PM,46.4,27.5,48,30.08,10.0,NW,5.8,-,N/A,,Clear,320,2012-11-02 19:35:00
2:55 PM,46.8,27.1,46,30.08,10.0,Calm,Calm,-,N/A,,Clear,0,2012-11-02 19:55:00
3:15 PM,47.5,27.5,46,30.08,10.0,Calm,Calm,-,N/A,,Clear,0,2012-11-02 20:15:00
3:35 PM,47.5,27.1,45,30.08,4.0,North,3.5,-,N/A,,Haze,360,2012-11-02 20:35:00
3:55 PM,47.3,26.1,44,30.09,5.0,North,5.8,-,N/A,,Haze,10,2012-11-02 20:55:00
4:15 PM,47.3,28.0,47,30.08,10.0,NE,8.1,-,N/A,,Clear,40,2012-11-02 21:15:00
4:35 PM,46.9,27.7,47,30.08,4.0,NE,8.1,-,N/A,,Haze,40,2012-11-02 21:35:00
4:55 PM,46.4,26.2,45,30.08,2.5,NE,8.1,-,N/A,,Haze,40,2012-11-02 21:55:00
5:15 PM,45.9,27.9,49,30.08,2.5,NE,5.8,-,N/A,,Haze,50,2012-11-02 22:15:00
5:35 PM,45.1,27.5,50,30.07,3.0,NE,6.9,-,N/A,,Haze,50,2012-11-02 22:35:00
5:55 PM,44.1,28.0,53,30.08,2.5,NE,5.8,-,N/A,,Haze,50,2012-11-02 22:55:00
6:15 PM,43.7,27.7,53,30.08,5.0,ENE,6.9,-,N/A,,Haze,60,2012-11-02 23:15:00
6:55 PM,42.3,27.5,56,30.10,4.0,NE,4.6,-,N/A,,Haze,50,2012-11-02 23:55:00
7:15 PM,42.1,28.0,58,30.10,7.0,NE,3.5,-,N/A,,Clear,50,2012-11-03 00:15:00
7:35 PM,41.7,28.6,60,30.11,10.0,Calm,Calm,-,N/A,,Clear,0,2012-11-03 00:35:00
7:55 PM,42.1,28.4,58,30.11,10.0,NE,4.6,-,N/A,,Clear,50,2012-11-03 00:55:00
8:15 PM,42.3,28.0,57,30.10,10.0,NE,6.9,-,N/A,,Clear,50,2012-11-03 01:15:00
8:35 PM,42.1,28.8,59,30.09,10.0,ENE,6.9,-,N/A,,Clear,60,2012-11-03 01:35:00
8:55 PM,41.9,29.1,61,30.10,10.0,NE,6.9,-,N/A,,Clear,50,2012-11-03 01:55:00
9:15 PM,41.0,29.3,63,30.10,10.0,NE,8.1,-,N/A,,Clear,50,2012-11-03 02:15:00
9:35 PM,41.0,29.5,64,30.12,10.0,NE,8.1,-,N/A,,Clear,50,2012-11-03 02:35:00
9:55 PM,41.0,29.8,64,30.12,10.0,ENE,9.2,-,N/A,,Clear,70,2012-11-03 02:55:00
10:15 PM,41.0,30.6,66,30.12,10.0,East,9.2,-,N/A,,Mostly Cloudy,90,2012-11-03 03:15:00
10:35 PM,41.0,31.1,68,30.12,10.0,East,8.1,-,N/A,,Scattered Clouds,100,2012-11-03 03:35:00
10:55 PM,40.8,31.8,70,30.12,10.0,East,8.1,-,N/A,,Clear,90,2012-11-03 03:55:00
11:15 PM,40.6,32.0,71,30.13,10.0,East,6.9,-,N/A,,Clear,80,2012-11-03 04:15:00
11:35 PM,41.0,32.2,71,30.13,10.0,East,5.8,-,N/A,,Scattered Clouds,90,2012-11-03 04:35:00
11:55 PM,40.6,32.4,72,30.14,10.0,ENE,5.8,-,N/A,,Mostly Cloudy,70,2012-11-03 04:55:00